Shiloh, Ohio
Current Conditions -  °F | °C
As of 6:21 AM on Tuesday 21 Oct 2014 (Local Time) from KMFD Reporting Station
Light Rain Light Rain  
Wind Chill: 43°   Ceiling: 600
Heat Index: 48°   Visibility: 4mi
Dew Point: 48°   Wind: 10mph
Humidity: 100%   Direction: 330°NNW
Pressure: 29.88"   Gusts: NA
Location:  40.97°N, 82.6°W
Report Text: KMFD 211021Z 33009KT 4SM -RA BR OVC006 09/09 A2988 RMK AO2 CIG 003V009 P0007 T00890089
Loading
Personal Weather Stations






























Interactive Weather Map
Tropical Storm Tracking
New forecast layout! Learn more

10-Day Weather Forecast

Advertisements
Track Severe Weather on mobile